Time;durP1;ratioP1;P1;durP2;ratioP2;P2;SDS_P1;SDS_P2;PMS_P1;PMS_P2;Temp;Humidity;BMP_temperature;BMP_pressure;BME280_temperature;BME280_humidity;BME280_pressure;Samples;Min_cycle;Max_cycle;Signal;HPM_P1;HPM_P2
2021/05/06 00:08:09;;;;;;;4.43;2.25;;;;;;;;;;6268793;28;20045;-72
2021/05/06 00:34:23;;;;;;;4.20;1.95;;;;;;;;;;6271522;28;20038;-71
2021/05/06 00:37:25;;;;;;;4.60;1.92;;;;;;;;;;6246287;28;20091;-73
2021/05/06 00:40:35;;;;;;;4.65;2.47;;;;;;;;;;6260915;28;20368;-71
2021/05/06 00:44:02;;;;;;;5.40;2.08;;;;;;;;;;6254963;28;20044;-74
2021/05/06 00:54:18;;;;;;;3.28;2.13;;;;;;;;;;6271480;28;20060;-73
2021/05/06 00:57:24;;;;;;;4.47;2.00;;;;;;;;;;6268422;28;20459;-72
2021/05/06 01:00:42;;;;;;;3.22;1.70;;;;;;;;;;6264559;28;20088;-73
2021/05/06 01:03:57;;;;;;;2.38;1.55;;;;;;;;;;6270441;28;20048;-70
2021/05/06 01:07:11;;;;;;;3.42;2.40;;;;;;;;;;6265861;28;20044;-72
2021/05/06 01:10:38;;;;;;;5.90;1.98;;;;;;;;;;6261776;28;20056;-74
2021/05/06 01:13:42;;;;;;;3.15;1.90;;;;;;;;;;6260709;28;20754;-73
2021/05/06 01:16:45;;;;;;;3.58;1.65;;;;;;;;;;6253283;28;20050;-72
2021/05/06 01:19:48;;;;;;;3.15;1.85;;;;;;;;;;6291572;28;20051;-72
2021/05/06 01:22:51;;;;;;;4.38;2.17;;;;;;;;;;6267336;28;20446;-74
2021/05/06 01:25:55;;;;;;;2.77;1.70;;;;;;;;;;6263953;28;20048;-74
2021/05/06 01:28:59;;;;;;;;;;;;;;;;;;6264186;28;20041;-75
2021/05/06 01:32:10;;;;;;;4.20;1.80;;;;;;;;;;6270822;28;19932;-76
2021/05/06 01:35:16;;;;;;;5.00;1.83;;;;;;;;;;6263120;28;20484;-77
2021/05/06 01:38:41;;;;;;;3.65;1.90;;;;;;;;;;6268173;28;20116;-73
2021/05/06 01:41:50;;;;;;;;;;;;;;;;;;6255548;28;20056;-74
2021/05/06 01:45:11;;;;;;;3.55;1.88;;;;;;;;;;6257647;28;20012;-73
2021/05/06 01:48:25;;;;;;;6.03;2.13;;;;;;;;;;6255194;28;20055;-73
2021/05/06 02:01:25;;;;;;;4.28;2.28;;;;;;;;;;6261708;28;20045;-74
2021/05/06 02:04:26;;;;;;;4.35;2.60;;;;;;;;;;6265534;28;20148;-74
2021/05/06 02:07:28;;;;;;;5.47;2.10;;;;;;;;;;6261808;28;20128;-74
2021/05/06 02:10:30;;;;;;;3.00;1.85;;;;;;;;;;6259417;28;20053;-74
2021/05/06 02:13:31;;;;;;;7.22;2.40;;;;;;;;;;6262672;28;20136;-74
2021/05/06 02:16:34;;;;;;;6.40;2.13;;;;;;;;;;6263830;28;20128;-76
2021/05/06 02:19:38;;;;;;;7.00;3.73;;;;;;;;;;6259144;28;20409;-72
2021/05/06 02:22:39;;;;;;;16.98;7.50;;;;;;;;;;6262455;28;20061;-71
2021/05/06 02:25:41;;;;;;;11.57;5.85;;;;;;;;;;6251614;28;20136;-73
2021/05/06 02:28:42;;;;;;;8.95;4.45;;;;;;;;;;6253712;28;20044;-72
2021/05/06 02:31:43;;;;;;;49.97;22.42;;;;;;;;;;6260569;28;20880;-72
2021/05/06 02:34:45;;;;;;;19.48;9.00;;;;;;;;;;6259471;28;20103;-72
2021/05/06 02:37:47;;;;;;;10.93;5.28;;;;;;;;;;6264301;28;20102;-72
2021/05/06 02:40:48;;;;;;;6.30;2.97;;;;;;;;;;6261282;28;20868;-72
2021/05/06 02:43:50;;;;;;;7.68;2.67;;;;;;;;;;6263144;28;20060;-72
2021/05/06 02:46:51;;;;;;;5.63;2.50;;;;;;;;;;6251237;28;20075;-72
2021/05/06 02:49:52;;;;;;;11.30;2.80;;;;;;;;;;6257284;28;20056;-72
2021/05/06 02:52:59;;;;;;;9.40;2.97;;;;;;;;;;6260406;28;20745;-72
2021/05/06 02:56:07;;;;;;;10.38;3.50;;;;;;;;;;6260573;28;20077;-72
2021/05/06 02:59:31;;;;;;;9.82;3.15;;;;;;;;;;6259508;28;20055;-72
2021/05/06 03:02:49;;;;;;;10.35;3.60;;;;;;;;;;6270252;28;20056;-72
2021/05/06 03:05:53;;;;;;;8.70;3.67;;;;;;;;;;6266847;28;20041;-72
2021/05/06 03:08:57;;;;;;;10.18;3.13;;;;;;;;;;6256801;28;20053;-72
2021/05/06 03:12:08;;;;;;;8.70;2.65;;;;;;;;;;6250752;28;20057;-72
2021/05/06 03:25:15;;;;;;;7.53;3.00;;;;;;;;;;6251921;28;20387;-72
2021/05/06 03:28:24;;;;;;;6.85;3.65;;;;;;;;;;6254809;28;20088;-73
2021/05/06 03:34:53;;;;;;;6.50;3.55;;;;;;;;;;6248653;28;20102;-73
2021/05/06 03:44:47;;;;;;;8.25;3.50;;;;;;;;;;6247489;28;20203;-73
2021/05/06 03:48:32;;;;;;;14.52;3.78;;;;;;;;;;6248017;28;20364;-72
2021/05/06 04:18:08;;;;;;;10.85;3.50;;;;;;;;;;6249130;28;20033;-72
2021/05/06 04:21:33;;;;;;;9.52;3.40;;;;;;;;;;6255342;28;20400;-72
2021/05/06 04:28:01;;;;;;;6.80;2.70;;;;;;;;;;6263086;28;20044;-72
2021/05/06 04:31:20;;;;;;;4.95;2.40;;;;;;;;;;6265049;28;20056;-72
2021/05/06 04:37:42;;;;;;;9.07;2.30;;;;;;;;;;6250322;28;20041;-73
2021/05/06 04:41:07;;;;;;;7.30;2.55;;;;;;;;;;6262162;28;20313;-72
2021/05/06 05:04:20;;;;;;;5.32;2.25;;;;;;;;;;6263634;28;19948;-72
2021/05/06 05:07:25;;;;;;;4.60;2.60;;;;;;;;;;6263150;28;20041;-75
2021/05/06 05:10:38;;;;;;;4.30;2.90;;;;;;;;;;6250407;28;20053;-72
2021/05/06 05:13:49;;;;;;;5.45;3.30;;;;;;;;;;6249491;28;20065;-72
2021/05/06 05:20:34;;;;;;;5.38;3.38;;;;;;;;;;6225867;28;20072;-72
2021/05/06 05:23:40;;;;;;;6.38;3.70;;;;;;;;;;6234149;28;20149;-72
2021/05/06 05:26:41;;;;;;;7.50;4.13;;;;;;;;;;6268170;28;20053;-72
2021/05/06 05:29:42;;;;;;;9.32;4.57;;;;;;;;;;6269887;28;20171;-73
2021/05/06 05:32:43;;;;;;;8.75;4.63;;;;;;;;;;6265793;28;20141;-73
2021/05/06 05:35:53;;;;;;;8.48;4.95;;;;;;;;;;6268285;28;20049;-71
2021/05/06 05:39:00;;;;;;;13.57;5.22;;;;;;;;;;6258152;28;20057;-74
2021/05/06 05:55:34;;;;;;;10.13;5.85;;;;;;;;;;6249622;28;20057;-73
2021/05/06 05:58:35;;;;;;;11.18;6.65;;;;;;;;;;6249334;28;20081;-73
2021/05/06 06:01:36;;;;;;;10.55;6.78;;;;;;;;;;6254294;28;20080;-75
2021/05/06 06:04:37;;;;;;;13.27;7.30;;;;;;;;;;6261699;28;20085;-71
2021/05/06 06:07:39;;;;;;;9.75;7.15;;;;;;;;;;6270463;28;20135;-69
2021/05/06 06:10:41;;;;;;;11.38;7.30;;;;;;;;;;6266662;28;20500;-74
2021/05/06 06:13:42;;;;;;;12.25;7.13;;;;;;;;;;6254411;28;20088;-74
2021/05/06 06:16:43;;;;;;;13.60;8.00;;;;;;;;;;6260142;28;20083;-74
2021/05/06 06:19:48;;;;;;;17.90;7.85;;;;;;;;;;6276933;28;20071;-74
2021/05/06 06:22:49;;;;;;;13.02;7.47;;;;;;;;;;6262747;28;20540;-76
2021/05/06 06:25:53;;;;;;;13.43;7.60;;;;;;;;;;6262574;28;20132;-74
2021/05/06 06:28:56;;;;;;;11.18;7.75;;;;;;;;;;6267533;28;20045;-74
2021/05/06 06:31:58;;;;;;;12.20;7.35;;;;;;;;;;6259999;28;20088;-75
2021/05/06 06:34:59;;;;;;;19.08;7.43;;;;;;;;;;6256231;28;20101;-75
2021/05/06 06:38:00;;;;;;;12.00;7.97;;;;;;;;;;6249253;28;20128;-76
2021/05/06 06:41:04;;;;;;;14.23;8.48;;;;;;;;;;6268042;28;20194;-76
2021/05/06 06:44:05;;;;;;;13.02;7.82;;;;;;;;;;6251456;28;20053;-75
2021/05/06 06:47:07;;;;;;;14.63;8.25;;;;;;;;;;6249564;28;20077;-76
2021/05/06 06:50:09;;;;;;;14.57;7.47;;;;;;;;;;6251607;28;20127;-71
2021/05/06 06:53:13;;;;;;;16.63;7.38;;;;;;;;;;6244038;28;20060;-74
2021/05/06 06:56:15;;;;;;;14.07;8.07;;;;;;;;;;6252217;28;20565;-69
2021/05/06 06:59:16;;;;;;;18.27;8.80;;;;;;;;;;6259821;28;20157;-74
2021/05/06 07:02:17;;;;;;;14.30;8.25;;;;;;;;;;6260523;28;20131;-77
2021/05/06 07:05:18;;;;;;;16.10;8.20;;;;;;;;;;6253591;28;20080;-75
2021/05/06 07:08:22;;;;;;;16.10;8.50;;;;;;;;;;6248017;28;20045;-73
2021/05/06 07:11:24;;;;;;;13.00;8.10;;;;;;;;;;6249479;28;20157;-74
2021/05/06 07:14:28;;;;;;;15.95;8.23;;;;;;;;;;6253088;28;20496;-74
2021/05/06 07:17:29;;;;;;;17.15;7.55;;;;;;;;;;6250583;28;20604;-75
2021/05/06 07:20:30;;;;;;;15.88;8.18;;;;;;;;;;6258387;28;20076;-76
2021/05/06 07:23:32;;;;;;;16.55;8.48;;;;;;;;;;6265537;28;20077;-75
2021/05/06 07:26:34;;;;;;;12.98;7.90;;;;;;;;;;6271295;28;20064;-74
2021/05/06 07:29:35;;;;;;;16.92;8.20;;;;;;;;;;6263268;28;20512;-75
2021/05/06 07:32:37;;;;;;;16.42;8.65;;;;;;;;;;6263239;28;20455;-74
2021/05/06 07:35:38;;;;;;;12.77;7.90;;;;;;;;;;6265377;28;20059;-74
2021/05/06 07:38:39;;;;;;;17.05;7.28;;;;;;;;;;6255380;28;20070;-74
2021/05/06 07:41:41;;;;;;;15.05;7.40;;;;;;;;;;6249852;28;20235;-75
2021/05/06 07:44:42;;;;;;;17.95;7.03;;;;;;;;;;6250661;28;20182;-76
2021/05/06 07:47:43;;;;;;;14.05;6.95;;;;;;;;;;6253710;28;20068;-75
2021/05/06 07:50:44;;;;;;;15.95;7.40;;;;;;;;;;6249777;28;20076;-74
2021/05/06 07:53:48;;;;;;;12.80;7.57;;;;;;;;;;6257226;28;20132;-75
2021/05/06 07:56:50;;;;;;;17.38;8.43;;;;;;;;;;6260359;28;20059;-74
2021/05/06 07:59:51;;;;;;;20.35;9.10;;;;;;;;;;6262038;28;20123;-74
2021/05/06 08:02:53;;;;;;;13.55;7.63;;;;;;;;;;6250921;28;20481;-74
2021/05/06 08:05:57;;;;;;;14.63;7.72;;;;;;;;;;6254051;28;20037;-75
2021/05/06 08:08:58;;;;;;;;;;;;;;;;;;6260029;28;21017;-73
2021/05/06 08:12:02;;;;;;;17.95;8.05;;;;;;;;;;6261050;28;19921;-75
2021/05/06 08:15:07;;;;;;;11.48;6.57;;;;;;;;;;6257030;28;20079;-75
2021/05/06 08:18:08;;;;;;;13.25;6.40;;;;;;;;;;6257285;28;20053;-75
2021/05/06 08:21:09;;;;;;;16.63;6.82;;;;;;;;;;6258628;28;20117;-74
2021/05/06 08:24:11;;;;;;;16.48;7.15;;;;;;;;;;6261651;28;20045;-73
2021/05/06 08:27:13;;;;;;;16.45;6.63;;;;;;;;;;6263605;28;20131;-75
2021/05/06 08:30:15;;;;;;;18.40;7.35;;;;;;;;;;6264767;28;20041;-75
2021/05/06 08:33:16;;;;;;;11.90;6.70;;;;;;;;;;6260925;28;20041;-75
2021/05/06 08:36:17;;;;;;;11.30;5.53;;;;;;;;;;6262760;28;20051;-74
2021/05/06 08:39:19;;;;;;;20.40;5.22;;;;;;;;;;6254714;28;20132;-73
2021/05/06 08:42:21;;;;;;;14.18;5.60;;;;;;;;;;6257166;28;20134;-76
2021/05/06 08:45:26;;;;;;;11.35;5.05;;;;;;;;;;6258874;28;20049;-73
2021/05/06 08:48:28;;;;;;;16.88;4.93;;;;;;;;;;6260668;28;20041;-76
2021/05/06 08:51:29;;;;;;;14.35;5.00;;;;;;;;;;6263251;28;20178;-72
2021/05/06 08:54:30;;;;;;;15.23;4.75;;;;;;;;;;6256929;28;20507;-75
2021/05/06 08:57:33;;;;;;;11.20;3.85;;;;;;;;;;6267163;28;20148;-75
2021/05/06 09:00:34;;;;;;;11.10;4.25;;;;;;;;;;6263567;28;20082;-76
2021/05/06 09:03:35;;;;;;;12.98;4.60;;;;;;;;;;6251540;28;20067;-76
2021/05/06 09:06:36;;;;;;;14.57;4.10;;;;;;;;;;6262293;28;20057;-76
2021/05/06 09:09:42;;;;;;;7.72;3.17;;;;;;;;;;6258242;28;20139;-75
2021/05/06 09:12:44;;;;;;;10.20;2.90;;;;;;;;;;6259742;28;20052;-75
2021/05/06 09:15:49;;;;;;;7.68;2.80;;;;;;;;;;6256764;28;20045;-76
2021/05/06 09:18:50;;;;;;;7.25;2.72;;;;;;;;;;6257388;28;20044;-76
2021/05/06 09:21:51;;;;;;;10.98;3.13;;;;;;;;;;6256223;28;20737;-75
2021/05/06 09:24:52;;;;;;;15.27;3.45;;;;;;;;;;6261354;28;20390;-75
2021/05/06 09:28:12;;;;;;;10.40;4.18;;;;;;;;;;6258432;28;20483;-74
2021/05/06 09:31:13;;;;;;;9.98;3.28;;;;;;;;;;6251873;28;20053;-74
2021/05/06 09:34:14;;;;;;;11.20;3.00;;;;;;;;;;6258520;28;20052;-75
2021/05/06 09:37:21;;;;;;;7.57;3.03;;;;;;;;;;6255723;28;20037;-75
2021/05/06 09:40:22;;;;;;;13.18;2.90;;;;;;;;;;6252417;28;20040;-74
2021/05/06 09:43:26;;;;;;;13.77;3.38;;;;;;;;;;6259024;28;20451;-75
2021/05/06 09:46:32;;;;;;;8.95;3.03;;;;;;;;;;6256302;28;20041;-75
2021/05/06 09:49:39;;;;;;;12.73;3.63;;;;;;;;;;6247818;28;20071;-74
2021/05/06 09:52:53;;;;;;;7.93;2.65;;;;;;;;;;6255450;28;20044;-75
2021/05/06 09:55:56;;;;;;;14.95;3.30;;;;;;;;;;6256700;28;20052;-75
2021/05/06 09:58:58;;;;;;;11.03;3.00;;;;;;;;;;6261266;28;20623;-74
2021/05/06 10:02:07;;;;;;;16.80;3.88;;;;;;;;;;6258721;28;20059;-74
2021/05/06 10:05:10;;;;;;;11.50;3.00;;;;;;;;;;6257354;28;20135;-75
2021/05/06 10:08:12;;;;;;;9.65;2.90;;;;;;;;;;6256022;28;20566;-76
2021/05/06 10:11:15;;;;;;;10.68;2.58;;;;;;;;;;6250855;28;20045;-76
2021/05/06 10:14:17;;;;;;;9.07;2.55;;;;;;;;;;6253871;28;20155;-74
2021/05/06 10:17:19;;;;;;;12.50;2.90;;;;;;;;;;6256613;28;20123;-72
2021/05/06 10:20:23;;;;;;;7.72;2.35;;;;;;;;;;6254200;28;20555;-73
2021/05/06 10:23:25;;;;;;;9.85;3.55;;;;;;;;;;6256841;28;20557;-74
2021/05/06 10:26:26;;;;;;;8.98;2.60;;;;;;;;;;6256107;28;20130;-79
2021/05/06 10:29:28;;;;;;;8.77;2.78;;;;;;;;;;6260255;28;20056;-76
2021/05/06 10:32:32;;;;;;;11.07;3.00;;;;;;;;;;6264401;28;20135;-79
2021/05/06 10:35:34;;;;;;;9.20;3.20;;;;;;;;;;6252037;28;20141;-74
2021/05/06 10:38:38;;;;;;;11.90;3.22;;;;;;;;;;6260141;28;20119;-77
2021/05/06 10:41:40;;;;;;;14.23;3.85;;;;;;;;;;6264189;28;20049;-77
2021/05/06 10:44:42;;;;;;;10.52;3.10;;;;;;;;;;6264369;28;20041;-76
2021/05/06 10:47:53;;;;;;;8.55;3.45;;;;;;;;;;6266026;28;20098;-73
2021/05/06 10:50:54;;;;;;;11.90;3.45;;;;;;;;;;6260925;28;20132;-76
2021/05/06 10:53:56;;;;;;;13.15;3.45;;;;;;;;;;6261929;28;20128;-77
2021/05/06 10:56:58;;;;;;;8.27;3.17;;;;;;;;;;6266729;28;20052;-75
2021/05/06 11:00:00;;;;;;;12.77;3.25;;;;;;;;;;6268817;28;20061;-74
2021/05/06 11:03:04;;;;;;;8.53;3.57;;;;;;;;;;6259409;28;20132;-76
2021/05/06 11:06:06;;;;;;;9.68;2.83;;;;;;;;;;6267278;28;20045;-76
2021/05/06 11:09:50;;;;;;;8.00;3.47;;;;;;;;;;6265984;28;20073;-75
2021/05/06 11:12:56;;;;;;;8.43;3.45;;;;;;;;;;6261810;28;20132;-73
2021/05/06 11:16:15;;;;;;;9.32;3.53;;;;;;;;;;6261652;28;20076;-73
2021/05/06 11:19:42;;;;;;;8.73;2.90;;;;;;;;;;6261917;28;20074;-73
2021/05/06 11:22:53;;;;;;;8.23;3.25;;;;;;;;;;6259891;28;20080;-75
2021/05/06 11:26:17;;;;;;;8.88;3.50;;;;;;;;;;6254129;28;20038;-73
2021/05/06 11:29:27;;;;;;;8.13;3.25;;;;;;;;;;6253555;28;20052;-73
2021/05/06 11:32:35;;;;;;;9.98;2.88;;;;;;;;;;6259228;28;20045;-73
2021/05/06 11:35:54;;;;;;;12.20;3.20;;;;;;;;;;6258180;28;20139;-74
2021/05/06 11:38:55;;;;;;;10.40;3.10;;;;;;;;;;6257631;28;20053;-74
2021/05/06 11:41:56;;;;;;;8.70;3.22;;;;;;;;;;6258481;28;20603;-73
2021/05/06 11:45:22;;;;;;;9.45;3.25;;;;;;;;;;6257708;28;20136;-74
2021/05/06 11:48:34;;;;;;;10.10;2.97;;;;;;;;;;6261820;28;20052;-73
2021/05/06 11:51:38;;;;;;;7.78;2.65;;;;;;;;;;6258692;28;20128;-73
2021/05/06 11:54:39;;;;;;;5.97;3.17;;;;;;;;;;6262313;28;20183;-74
2021/05/06 11:57:48;;;;;;;9.98;2.95;;;;;;;;;;6250213;28;20136;-73
2021/05/06 12:00:52;;;;;;;9.07;3.30;;;;;;;;;;6260512;28;20037;-74
2021/05/06 12:03:54;;;;;;;9.25;3.40;;;;;;;;;;6258271;28;20645;-72
2021/05/06 12:06:55;;;;;;;11.48;3.40;;;;;;;;;;6256147;28;20167;-72
2021/05/06 12:10:07;;;;;;;7.40;3.00;;;;;;;;;;6259517;28;20128;-72
2021/05/06 12:13:09;;;;;;;9.88;3.17;;;;;;;;;;6255376;28;20053;-73
2021/05/06 12:16:11;;;;;;;10.82;3.38;;;;;;;;;;6260627;28;20072;-72
2021/05/06 12:19:15;;;;;;;10.68;2.88;;;;;;;;;;6260232;28;20568;-72
2021/05/06 12:22:17;;;;;;;9.25;2.97;;;;;;;;;;6260935;28;20044;-72
2021/05/06 12:25:18;;;;;;;8.50;3.00;;;;;;;;;;6260843;28;20045;-74
2021/05/06 12:28:19;;;;;;;9.27;3.17;;;;;;;;;;6260940;28;20130;-73
2021/05/06 12:31:20;;;;;;;8.75;3.50;;;;;;;;;;6261619;28;20524;-76
2021/05/06 12:34:24;;;;;;;10.25;3.22;;;;;;;;;;6257492;28;20044;-73
2021/05/06 12:37:26;;;;;;;8.38;3.13;;;;;;;;;;6260895;28;20136;-73
2021/05/06 12:40:27;;;;;;;8.63;3.43;;;;;;;;;;6258896;28;20045;-74
2021/05/06 12:43:29;;;;;;;11.77;3.70;;;;;;;;;;6259450;28;20175;-75
2021/05/06 12:46:31;;;;;;;10.43;3.40;;;;;;;;;;6254955;28;20049;-74
2021/05/06 12:49:33;;;;;;;5.78;2.80;;;;;;;;;;6255875;28;20041;-73
2021/05/06 12:52:35;;;;;;;10.07;3.70;;;;;;;;;;6256998;28;20095;-73
2021/05/06 12:55:38;;;;;;;7.35;3.08;;;;;;;;;;6254483;28;20535;-73
2021/05/06 12:58:39;;;;;;;7.00;3.00;;;;;;;;;;6254048;28;20052;-74
2021/05/06 13:01:41;;;;;;;6.85;3.25;;;;;;;;;;6254810;28;20049;-74
2021/05/06 13:04:44;;;;;;;7.00;3.15;;;;;;;;;;6255486;28;20794;-73
2021/05/06 13:07:52;;;;;;;8.15;4.13;;;;;;;;;;6255340;28;20132;-73
2021/05/06 13:11:01;;;;;;;9.25;3.35;;;;;;;;;;6251109;28;20061;-73
2021/05/06 13:14:04;;;;;;;12.68;4.32;;;;;;;;;;6255936;28;20123;-72
2021/05/06 13:17:05;;;;;;;10.18;4.20;;;;;;;;;;6258881;28;20060;-73
2021/05/06 13:20:18;;;;;;;7.97;3.85;;;;;;;;;;6253203;28;20064;-73
2021/05/06 13:23:23;;;;;;;5.10;3.30;;;;;;;;;;6250055;28;20065;-73
2021/05/06 13:26:32;;;;;;;8.95;3.17;;;;;;;;;;6248686;28;20483;-73
2021/05/06 13:29:46;;;;;;;6.05;3.20;;;;;;;;;;6253608;28;20079;-73
2021/05/06 13:32:47;;;;;;;10.40;3.28;;;;;;;;;;6261487;28;20047;-73
2021/05/06 13:36:05;;;;;;;8.13;3.20;;;;;;;;;;6255473;28;20055;-73
2021/05/06 13:39:07;;;;;;;6.57;3.35;;;;;;;;;;6248428;28;20121;-73
2021/05/06 13:42:08;;;;;;;11.48;3.50;;;;;;;;;;6254260;28;20080;-74
2021/05/06 13:45:11;;;;;;;10.55;3.80;;;;;;;;;;6256908;28;20143;-76
2021/05/06 13:48:12;;;;;;;6.57;3.30;;;;;;;;;;6255406;28;20049;-73
2021/05/06 13:51:15;;;;;;;8.50;3.17;;;;;;;;;;6264692;28;20148;-73
2021/05/06 13:54:16;;;;;;;5.20;3.10;;;;;;;;;;6263421;28;20171;-73
2021/05/06 13:57:17;;;;;;;10.05;3.60;;;;;;;;;;6266528;28;20130;-74
2021/05/06 14:00:19;;;;;;;7.03;3.33;;;;;;;;;;6261369;28;20091;-73
2021/05/06 14:03:20;;;;;;;7.88;2.75;;;;;;;;;;6262810;28;20088;-73
2021/05/06 14:06:22;;;;;;;9.02;2.88;;;;;;;;;;6263013;28;20049;-73
2021/05/06 14:09:23;;;;;;;8.48;3.42;;;;;;;;;;6255233;28;20084;-73
2021/05/06 14:12:25;;;;;;;7.28;2.97;;;;;;;;;;6252807;28;20057;-73
2021/05/06 14:15:26;;;;;;;8.57;2.97;;;;;;;;;;6250906;28;20083;-74
2021/05/06 14:18:27;;;;;;;11.07;2.92;;;;;;;;;;6248044;28;20050;-73
2021/05/06 14:21:30;;;;;;;12.65;3.25;;;;;;;;;;6247588;28;20170;-73
2021/05/06 14:24:31;;;;;;;7.65;3.17;;;;;;;;;;6249137;28;20049;-73
2021/05/06 14:27:33;;;;;;;7.63;2.90;;;;;;;;;;6250528;28;20085;-72
2021/05/06 14:30:35;;;;;;;11.33;3.43;;;;;;;;;;6255121;28;20179;-73
2021/05/06 14:33:36;;;;;;;16.70;3.47;;;;;;;;;;6256185;28;20049;-73
2021/05/06 14:36:38;;;;;;;10.90;3.30;;;;;;;;;;6258464;28;20476;-74
2021/05/06 14:39:39;;;;;;;8.38;3.30;;;;;;;;;;6253562;28;20132;-73
2021/05/06 14:42:40;;;;;;;7.82;3.67;;;;;;;;;;6256558;28;20453;-74
2021/05/06 14:45:41;;;;;;;9.63;3.15;;;;;;;;;;6253577;28;20486;-74
2021/05/06 14:48:42;;;;;;;7.00;2.92;;;;;;;;;;6256400;28;20067;-75
2021/05/06 14:51:44;;;;;;;8.48;3.25;;;;;;;;;;6252940;28;20096;-74
2021/05/06 14:54:46;;;;;;;5.78;3.30;;;;;;;;;;6248303;28;20174;-74
2021/05/06 14:57:47;;;;;;;7.88;3.05;;;;;;;;;;6250870;28;20048;-74
2021/05/06 15:00:48;;;;;;;7.05;3.22;;;;;;;;;;6247656;28;20110;-74
2021/05/06 15:03:49;;;;;;;10.05;3.83;;;;;;;;;;6247914;28;20041;-73
2021/05/06 15:06:52;;;;;;;12.20;3.60;;;;;;;;;;6248928;28;20059;-73
2021/05/06 15:09:53;;;;;;;7.60;3.03;;;;;;;;;;6245744;28;20156;-74
2021/05/06 15:12:54;;;;;;;11.15;4.32;;;;;;;;;;6250034;28;20562;-74
2021/05/06 15:15:56;;;;;;;12.32;3.63;;;;;;;;;;6250260;28;20139;-74
2021/05/06 15:18:57;;;;;;;11.25;3.90;;;;;;;;;;6249566;28;20356;-72
2021/05/06 15:22:00;;;;;;;13.00;4.50;;;;;;;;;;6250300;28;20044;-72
2021/05/06 15:25:01;;;;;;;13.70;4.35;;;;;;;;;;6256489;28;20109;-72
2021/05/06 15:28:02;;;;;;;10.27;4.60;;;;;;;;;;6254341;28;20044;-72
2021/05/06 15:31:05;;;;;;;10.88;4.72;;;;;;;;;;6263961;28;20120;-72
2021/05/06 15:34:07;;;;;;;10.65;5.40;;;;;;;;;;6255984;28;20064;-72
2021/05/06 15:37:09;;;;;;;13.10;4.20;;;;;;;;;;6257335;28;20464;-72
2021/05/06 15:40:11;;;;;;;10.75;4.80;;;;;;;;;;6260824;28;20046;-72
2021/05/06 15:43:13;;;;;;;10.90;5.05;;;;;;;;;;6255524;28;20132;-74
2021/05/06 15:46:16;;;;;;;15.23;4.75;;;;;;;;;;6258596;28;20702;-71
2021/05/06 15:49:17;;;;;;;10.57;4.32;;;;;;;;;;6243862;28;20049;-75
2021/05/06 15:52:19;;;;;;;10.68;4.93;;;;;;;;;;6244042;28;20057;-74
2021/05/06 15:55:20;;;;;;;11.55;4.80;;;;;;;;;;6243880;28;20098;-72
2021/05/06 15:58:21;;;;;;;12.70;4.93;;;;;;;;;;6245825;28;20051;-72
2021/05/06 16:01:23;;;;;;;13.25;5.00;;;;;;;;;;6255066;28;20045;-72
2021/05/06 16:04:27;;;;;;;10.95;5.13;;;;;;;;;;6255864;28;20052;-72
2021/05/06 16:07:28;;;;;;;;;;;;;;;;;;6259265;28;20052;-72
2021/05/06 16:10:30;;;;;;;11.27;5.05;;;;;;;;;;6250333;28;19921;-73
2021/05/06 16:13:31;;;;;;;9.88;4.40;;;;;;;;;;6255596;28;20053;-72
2021/05/06 16:16:32;;;;;;;9.90;5.07;;;;;;;;;;6257008;28;20043;-74
2021/05/06 16:19:33;;;;;;;11.35;4.68;;;;;;;;;;6257037;28;20136;-72
2021/05/06 16:22:35;;;;;;;17.13;5.20;;;;;;;;;;6259227;28;20048;-75
2021/05/06 16:25:36;;;;;;;14.90;5.07;;;;;;;;;;6257040;28;20061;-74
2021/05/06 16:28:38;;;;;;;18.98;5.03;;;;;;;;;;6256642;28;20083;-73
2021/05/06 16:31:39;;;;;;;11.82;4.70;;;;;;;;;;6257472;28;20045;-73
2021/05/06 16:34:41;;;;;;;11.73;4.57;;;;;;;;;;6258430;28;20143;-73
2021/05/06 16:37:46;;;;;;;9.45;4.70;;;;;;;;;;6255227;28;20052;-74
2021/05/06 16:40:51;;;;;;;8.43;4.70;;;;;;;;;;6254940;28;20049;-73
2021/05/06 16:44:00;;;;;;;20.95;4.63;;;;;;;;;;6257452;28;20053;-73
2021/05/06 16:47:04;;;;;;;12.10;5.47;;;;;;;;;;6255410;28;20056;-73
2021/05/06 16:50:06;;;;;;;10.05;4.15;;;;;;;;;;6251445;28;20117;-73
2021/05/06 16:53:08;;;;;;;13.88;4.50;;;;;;;;;;6256905;28;20464;-73
2021/05/06 16:56:09;;;;;;;12.00;4.43;;;;;;;;;;6252545;28;20147;-73
2021/05/06 16:59:10;;;;;;;12.38;4.88;;;;;;;;;;6262646;28;20672;-74
2021/05/06 17:02:11;;;;;;;10.25;4.43;;;;;;;;;;6255664;28;20577;-73
2021/05/06 17:05:13;;;;;;;12.32;5.03;;;;;;;;;;6256537;28;20447;-71
2021/05/06 17:08:14;;;;;;;10.93;4.45;;;;;;;;;;6258965;28;20056;-73
2021/05/06 17:11:15;;;;;;;9.82;4.53;;;;;;;;;;6262080;28;20132;-71
2021/05/06 17:14:17;;;;;;;16.27;4.80;;;;;;;;;;6264671;28;20049;-72
2021/05/06 17:17:18;;;;;;;9.93;4.60;;;;;;;;;;6255363;28;20103;-71
2021/05/06 17:20:19;;;;;;;12.65;5.07;;;;;;;;;;6243010;28;20523;-71
2021/05/06 17:23:21;;;;;;;13.55;5.40;;;;;;;;;;6249116;28;20129;-71
2021/05/06 17:26:23;;;;;;;12.90;4.38;;;;;;;;;;6248901;28;20390;-73
2021/05/06 17:29:24;;;;;;;14.25;4.13;;;;;;;;;;6263062;28;20146;-71
2021/05/06 17:32:27;;;;;;;19.92;5.20;;;;;;;;;;6257423;28;20064;-71
2021/05/06 17:35:28;;;;;;;12.50;4.05;;;;;;;;;;6259024;28;20164;-72
2021/05/06 17:38:30;;;;;;;11.20;4.53;;;;;;;;;;6265951;28;20087;-72
2021/05/06 17:41:31;;;;;;;13.75;4.63;;;;;;;;;;6262300;28;20132;-72
2021/05/06 17:44:33;;;;;;;11.70;4.20;;;;;;;;;;6263139;28;20095;-72
2021/05/06 17:47:34;;;;;;;15.05;3.83;;;;;;;;;;6262628;28;20142;-72
2021/05/06 17:50:35;;;;;;;9.38;3.85;;;;;;;;;;6269203;28;20109;-72
2021/05/06 17:53:37;;;;;;;11.27;3.88;;;;;;;;;;6261593;28;20140;-73
2021/05/06 17:56:38;;;;;;;11.65;4.10;;;;;;;;;;6252964;28;20060;-72
2021/05/06 17:59:39;;;;;;;13.88;4.03;;;;;;;;;;6252687;28;20113;-75
2021/05/06 18:02:42;;;;;;;10.40;4.22;;;;;;;;;;6261678;28;20048;-72
2021/05/06 18:05:44;;;;;;;10.43;4.13;;;;;;;;;;6252865;28;20617;-71
2021/05/06 18:08:49;;;;;;;10.43;3.88;;;;;;;;;;6257596;28;20124;-72
2021/05/06 18:12:02;;;;;;;11.18;3.83;;;;;;;;;;6255902;28;20128;-71
2021/05/06 18:15:04;;;;;;;13.98;4.38;;;;;;;;;;6258054;28;20140;-70
2021/05/06 18:18:05;;;;;;;8.27;3.58;;;;;;;;;;6260333;28;20443;-73
2021/05/06 18:21:06;;;;;;;13.75;4.28;;;;;;;;;;6265076;28;20131;-72
2021/05/06 18:24:09;;;;;;;11.52;3.85;;;;;;;;;;6262826;28;20180;-72
2021/05/06 18:27:13;;;;;;;6.95;3.72;;;;;;;;;;6263742;28;20136;-71
2021/05/06 18:30:17;;;;;;;11.15;3.55;;;;;;;;;;6265829;28;20052;-69
2021/05/06 18:33:18;;;;;;;12.38;4.03;;;;;;;;;;6261937;28;20044;-71
2021/05/06 18:36:19;;;;;;;18.92;4.32;;;;;;;;;;6262133;28;20045;-71
2021/05/06 18:39:22;;;;;;;12.82;4.45;;;;;;;;;;6257998;28;20171;-71
2021/05/06 18:42:23;;;;;;;13.07;3.83;;;;;;;;;;6258555;28;20120;-69
2021/05/06 18:45:25;;;;;;;13.23;3.60;;;;;;;;;;6259281;28;20064;-69
2021/05/06 18:48:26;;;;;;;18.20;4.13;;;;;;;;;;6268671;28;20055;-72
2021/05/06 18:51:27;;;;;;;9.55;3.90;;;;;;;;;;6270657;28;20054;-70
2021/05/06 18:54:29;;;;;;;10.35;4.55;;;;;;;;;;6267307;28;20133;-74
2021/05/06 18:57:30;;;;;;;15.98;4.22;;;;;;;;;;6264086;28;20072;-73
2021/05/06 19:00:32;;;;;;;11.82;4.10;;;;;;;;;;6259406;28;20530;-73
2021/05/06 19:03:33;;;;;;;14.55;4.50;;;;;;;;;;6267165;28;20173;-71
2021/05/06 19:06:34;;;;;;;9.27;4.35;;;;;;;;;;6264023;28;20130;-71
2021/05/06 19:09:36;;;;;;;14.63;4.28;;;;;;;;;;6262930;28;20052;-72
2021/05/06 19:12:37;;;;;;;9.20;4.28;;;;;;;;;;6261176;28;20053;-73
2021/05/06 19:15:38;;;;;;;11.18;4.57;;;;;;;;;;6267754;28;20036;-73
2021/05/06 19:18:39;;;;;;;9.50;4.13;;;;;;;;;;6257817;28;20132;-74
2021/05/06 19:21:41;;;;;;;13.88;4.28;;;;;;;;;;6252314;28;20418;-74
2021/05/06 19:24:42;;;;;;;11.35;4.55;;;;;;;;;;6254401;28;20049;-72
2021/05/06 19:27:44;;;;;;;11.80;4.70;;;;;;;;;;6265123;28;20064;-74
2021/05/06 19:30:45;;;;;;;7.40;3.92;;;;;;;;;;6265188;28;20126;-72
2021/05/06 19:33:46;;;;;;;8.35;3.88;;;;;;;;;;6270635;28;20485;-73
2021/05/06 19:36:48;;;;;;;11.40;5.45;;;;;;;;;;6268926;28;20045;-73
2021/05/06 19:39:50;;;;;;;9.02;4.65;;;;;;;;;;6270653;28;20147;-73
2021/05/06 19:42:54;;;;;;;13.05;4.55;;;;;;;;;;6262594;28;20136;-73
2021/05/06 19:46:06;;;;;;;14.02;5.28;;;;;;;;;;6259994;28;20539;-72
2021/05/06 19:49:07;;;;;;;14.95;5.35;;;;;;;;;;6260182;28;20049;-73
2021/05/06 19:52:08;;;;;;;8.32;4.40;;;;;;;;;;6261538;28;20194;-73
2021/05/06 19:55:10;;;;;;;11.13;5.03;;;;;;;;;;6263848;28;20479;-73
2021/05/06 19:58:11;;;;;;;11.95;4.63;;;;;;;;;;6265215;28;20123;-72
2021/05/06 20:01:14;;;;;;;10.02;4.75;;;;;;;;;;6265138;28;20090;-73
2021/05/06 20:04:15;;;;;;;8.30;4.55;;;;;;;;;;6264372;28;20171;-73
2021/05/06 20:07:16;;;;;;;8.68;3.97;;;;;;;;;;6268146;28;20143;-72
2021/05/06 20:10:18;;;;;;;8.25;4.45;;;;;;;;;;6272413;28;20128;-73
2021/05/06 20:13:20;;;;;;;10.82;4.90;;;;;;;;;;6262183;28;20497;-75
2021/05/06 20:16:21;;;;;;;10.23;4.68;;;;;;;;;;6261783;28;20067;-74
2021/05/06 20:19:24;;;;;;;10.00;4.93;;;;;;;;;;6262443;28;20045;-74
2021/05/06 20:22:25;;;;;;;10.02;4.28;;;;;;;;;;6263141;28;20045;-72
2021/05/06 20:25:28;;;;;;;14.07;5.35;;;;;;;;;;6272318;28;20131;-73
2021/05/06 20:28:29;;;;;;;9.40;4.40;;;;;;;;;;6269182;28;20171;-73
2021/05/06 20:31:30;;;;;;;10.75;4.90;;;;;;;;;;6262300;28;20045;-73